createdAt,value
2023-02-19T00:01:58.349Z,3.5
2023-02-19T00:07:42.196Z,3.6
2023-02-19T00:13:25.792Z,3.5
2023-02-19T00:19:13.305Z,3.9
2023-02-19T00:24:57.048Z,4.3
2023-02-19T00:30:40.747Z,3.9
2023-02-19T00:36:24.952Z,3.9
2023-02-19T00:42:08.656Z,3.8
2023-02-19T00:47:52.735Z,3.4
2023-02-19T00:53:36.584Z,3.3
2023-02-19T00:59:20.494Z,3.5
2023-02-19T01:05:04.188Z,3.3
2023-02-19T01:10:48.251Z,3.5
2023-02-19T01:16:32.125Z,3.4
2023-02-19T01:22:16.026Z,3.6
2023-02-19T01:27:59.544Z,3.5
2023-02-19T01:33:45.311Z,4.1
2023-02-19T01:39:29.065Z,4.8
2023-02-19T01:45:26.528Z,4.6
2023-02-19T01:51:13.517Z,4.8
2023-02-19T01:56:57.848Z,4.7
2023-02-19T02:02:42.803Z,4.9
2023-02-19T02:08:27.806Z,5
2023-02-19T02:14:11.592Z,4.9
2023-02-19T02:20:04.288Z,5.1
2023-02-19T02:26:05.042Z,4.8
2023-02-19T02:31:51.429Z,4.7
2023-02-19T02:37:36.925Z,5.1
2023-02-19T02:43:20.836Z,4.5
2023-02-19T02:49:06.923Z,4.8
2023-02-19T02:54:51.664Z,4.4
2023-02-19T03:00:35.881Z,4.3
2023-02-19T03:06:21.212Z,4.6
2023-02-19T03:12:06.940Z,4.6
2023-02-19T03:17:53.433Z,4.2
2023-02-19T03:23:38.762Z,4.3
2023-02-19T03:29:23.429Z,4.1
2023-02-19T03:35:11.233Z,4
2023-02-19T03:41:00.101Z,4.3
2023-02-19T03:46:47.455Z,4.1
2023-02-19T03:52:36.150Z,4.2
2023-02-19T03:58:25.103Z,3.9
2023-02-19T04:04:10.830Z,4
2023-02-19T04:09:55.731Z,3.8
2023-02-19T04:15:41.773Z,3.7
2023-02-19T04:21:25.760Z,3.5
2023-02-19T04:27:10.272Z,3.2
2023-02-19T04:32:54.052Z,3.5
2023-02-19T04:38:37.954Z,3.9
2023-02-19T04:44:21.746Z,3.5
2023-02-19T04:50:05.914Z,3.8
2023-02-19T04:55:49.737Z,4.4
2023-02-19T05:01:33.613Z,3.7
2023-02-19T05:07:17.391Z,4.3
2023-02-19T05:13:00.971Z,4.2
2023-02-19T05:18:45.899Z,3.7
2023-02-19T05:24:29.913Z,4
2023-02-19T05:30:14.509Z,4.1
2023-02-19T05:35:59.048Z,3.8
2023-02-19T05:41:42.856Z,3.7
2023-02-19T05:47:26.527Z,3.9
2023-02-19T05:53:10.920Z,4
2023-02-19T05:58:55.433Z,3.8
2023-02-19T06:04:39.216Z,3.3
2023-02-19T06:10:22.928Z,3.4
2023-02-19T06:16:09.329Z,3.7
2023-02-19T06:21:55.159Z,3.1
2023-02-19T06:27:38.907Z,3.2
2023-02-19T06:33:22.795Z,3.2
2023-02-19T06:39:06.994Z,3
2023-02-19T06:44:50.741Z,3.1
2023-02-19T06:50:34.353Z,3.1
2023-02-19T06:56:28.599Z,2.7
2023-02-19T07:02:12.712Z,3.1
2023-02-19T07:07:56.642Z,2.6
2023-02-19T07:13:41.202Z,2.7
2023-02-19T07:19:25.362Z,3.1
2023-02-19T07:25:09.832Z,2.7
2023-02-19T07:30:53.869Z,2.5
2023-02-19T07:36:39.640Z,2.8
2023-02-19T07:42:23.467Z,2.7
2023-02-19T07:48:07.225Z,2.3
2023-02-19T07:53:51.243Z,2.5
2023-02-19T07:59:35.922Z,2.6
2023-02-19T08:05:19.878Z,2.4
2023-02-19T08:11:06.591Z,2.8
2023-02-19T08:16:54.530Z,2.8
2023-02-19T08:22:38.543Z,2.8
2023-02-19T08:28:22.282Z,2.7
2023-02-19T08:34:07.113Z,2.5
2023-02-19T08:39:50.812Z,2.9
2023-02-19T08:45:34.667Z,2.6
2023-02-19T08:51:18.538Z,2.5
2023-02-19T08:57:02.346Z,2.6
2023-02-19T09:02:46.118Z,2.4
2023-02-19T09:08:29.878Z,2.5
2023-02-19T09:14:13.815Z,2.2
2023-02-19T09:19:57.599Z,1.9
2023-02-19T09:25:41.262Z,1.9
2023-02-19T09:31:25.151Z,2.1
2023-02-19T09:37:09.397Z,2
2023-02-19T09:42:54.325Z,2.3
2023-02-19T09:48:38.211Z,3.9
2023-02-19T09:54:24.263Z,3.6
2023-02-19T10:00:14.253Z,3
2023-02-19T10:05:58.045Z,2.7
2023-02-19T10:11:43.384Z,2.9
2023-02-19T10:17:30.357Z,3
2023-02-19T10:23:16.792Z,2.4
2023-02-19T10:29:00.662Z,2.6
2023-02-19T10:34:44.453Z,2.8
2023-02-19T10:40:30.989Z,3.5
2023-02-19T10:46:22.413Z,3.5
2023-02-19T10:52:11.226Z,3.3
2023-02-19T10:57:55.860Z,3
2023-02-19T11:03:39.820Z,3
2023-02-19T11:09:29.784Z,3.1
2023-02-19T11:15:21.840Z,2.9
2023-02-19T11:21:09.633Z,3.4
2023-02-19T11:26:54.442Z,4.4
2023-02-19T11:32:38.339Z,7.8
2023-02-19T11:38:23.098Z,5.4
2023-02-19T11:44:13.581Z,4.7
2023-02-19T11:50:02.475Z,4.5
2023-02-19T11:55:52.934Z,5.5
2023-02-19T12:01:46.597Z,4.7
2023-02-19T12:07:38.567Z,4.7
2023-02-19T12:13:28.219Z,4.5
2023-02-19T12:19:38.263Z,4.5
2023-02-19T12:25:27.199Z,5
2023-02-19T12:31:22.555Z,4.9
2023-02-19T12:37:14.083Z,4.7
2023-02-19T12:43:03.497Z,5.1
2023-02-19T12:48:48.648Z,4.9
2023-02-19T12:54:36.228Z,5.1
2023-02-19T13:00:28.211Z,5.1
2023-02-19T13:06:17.916Z,5.4
2023-02-19T13:12:07.255Z,5.3
2023-02-19T13:17:52.793Z,5
2023-02-19T13:23:37.783Z,5.3
2023-02-19T13:29:36.412Z,5.1
2023-02-19T13:35:30.072Z,5.4
2023-02-19T13:41:23.403Z,5.3
2023-02-19T13:47:07.098Z,5.4
2023-02-19T13:52:50.802Z,5.4
2023-02-19T13:58:46.287Z,4.5
2023-02-19T14:04:35.938Z,4.5
2023-02-19T14:10:25.707Z,4.5
2023-02-19T14:16:14.560Z,4.2
2023-02-19T14:21:58.312Z,4.4
2023-02-19T14:27:44.192Z,4.2
2023-02-19T14:33:28.955Z,3.9
2023-02-19T14:39:14.466Z,3.8
2023-02-19T14:45:00.209Z,3.6
2023-02-19T14:50:48.008Z,3.4
2023-02-19T14:56:34.623Z,3.5
2023-02-19T15:02:19.319Z,3.5
2023-02-19T15:08:04.959Z,3.5
2023-02-19T15:13:50.778Z,3.2
2023-02-19T15:19:35.584Z,3.1
2023-02-19T15:25:21.891Z,2.8
2023-02-19T15:31:22.777Z,3
2023-02-19T15:37:09.614Z,2.7
2023-02-19T15:42:53.708Z,2.9
2023-02-19T15:48:42.136Z,2.6
2023-02-19T15:54:29.277Z,3.2
2023-02-19T16:00:19.270Z,2.7
2023-02-19T16:06:07.172Z,2.9
2023-02-19T16:11:53.643Z,3
2023-02-19T16:17:37.648Z,2.9
2023-02-19T16:23:21.877Z,2.7
2023-02-19T16:29:05.555Z,3.8
2023-02-19T16:34:50.067Z,3
2023-02-19T16:40:51.032Z,3.3
2023-02-19T16:46:34.928Z,3.2
2023-02-19T16:52:18.998Z,3.5
2023-02-19T16:58:02.759Z,3.7
2023-02-19T17:03:47.742Z,3.9
2023-02-19T17:09:34.203Z,4
2023-02-19T17:15:18.044Z,3.9
2023-02-19T17:21:03.667Z,3.9
2023-02-19T17:26:47.515Z,4.3
2023-02-19T17:32:31.612Z,4.1
2023-02-19T17:38:16.057Z,4.2
2023-02-19T17:43:59.874Z,4.4
2023-02-19T17:49:44.433Z,3.9
2023-02-19T17:55:27.122Z,4.4
2023-02-19T18:01:11.067Z,4.2
2023-02-19T18:06:55.318Z,4.3
2023-02-19T18:12:39.012Z,4.3
2023-02-19T18:18:22.840Z,4.1
2023-02-19T18:24:07.100Z,4.3
2023-02-19T18:29:51.058Z,4.5
2023-02-19T18:35:36.701Z,5
2023-02-19T18:41:22.495Z,5.1
2023-02-19T18:47:06.872Z,5.3
2023-02-19T18:52:49.689Z,5.5
2023-02-19T18:58:33.527Z,5.9
2023-02-19T19:04:17.419Z,6.5
2023-02-19T19:10:01.081Z,6.5
2023-02-19T19:15:44.732Z,6.3
2023-02-19T19:21:29.704Z,6.7
2023-02-19T19:27:14.591Z,6.8
2023-02-19T19:32:59.754Z,7.3
2023-02-19T19:38:47.747Z,7.2
2023-02-19T19:44:31.507Z,7.2
2023-02-19T19:50:17.161Z,7.4
2023-02-19T19:56:01.542Z,7.9
2023-02-19T20:01:48.791Z,8.3
2023-02-19T20:07:32.564Z,7.5
2023-02-19T20:13:16.758Z,7.9
2023-02-19T20:19:00.496Z,7.6
2023-02-19T20:24:44.202Z,8.5
2023-02-19T20:30:28.062Z,8.1
2023-02-19T20:36:12.306Z,8.4
2023-02-19T20:41:56.168Z,8.3
2023-02-19T20:47:40.457Z,8.3
2023-02-19T20:53:24.359Z,8.4
2023-02-19T20:59:08.150Z,8.5
2023-02-19T21:04:51.810Z,8.5
2023-02-19T21:10:35.621Z,8.3
2023-02-19T21:16:22.407Z,8.4
2023-02-19T21:22:06.508Z,8.3
2023-02-19T21:27:50.300Z,8.5
2023-02-19T21:33:34.195Z,9.1
2023-02-19T21:39:19.459Z,8.8
2023-02-19T21:45:03.236Z,8.9
2023-02-19T21:50:46.966Z,9.3
2023-02-19T21:56:33.946Z,8.7
2023-02-19T22:02:19.513Z,8.9
2023-02-19T22:08:03.266Z,8.7
2023-02-19T22:13:47.230Z,8.4
2023-02-19T22:19:30.985Z,8.2
2023-02-19T22:25:14.791Z,7.8
2023-02-19T22:30:58.573Z,7.8
2023-02-19T22:36:43.589Z,8.5
2023-02-19T22:42:27.699Z,8.2
2023-02-19T22:48:29.379Z,7.4
2023-02-19T22:54:11.751Z,7.4
2023-02-19T22:59:56.426Z,7.6
2023-02-19T23:05:40.147Z,7.7
2023-02-19T23:11:26.966Z,7.5
2023-02-19T23:17:10.606Z,7
2023-02-19T23:22:54.435Z,7.1
2023-02-19T23:28:38.211Z,6.6
2023-02-19T23:34:22.058Z,6.8
2023-02-19T23:40:05.882Z,6.3
2023-02-19T23:45:49.700Z,6.9
2023-02-19T23:51:33.438Z,6.6
2023-02-19T23:57:18.221Z,6.4
